Time;durP1;ratioP1;P1;durP2;ratioP2;P2;SDS_P1;SDS_P2;PMS_P1;PMS_P2;Temp;Humidity;BMP_temperature;BMP_pressure;BME280_temperature;BME280_humidity;BME280_pressure;Samples;Min_cycle;Max_cycle;Signal;HPM_P1;HPM_P2
2023/01/23 00:02:00;;;;;;;0.63;0.63;;;;;;;9.46;100.00;100156.06;5051865;28;20227;-62
2023/01/23 00:04:27;;;;;;;0.97;0.97;;;;;;;9.46;100.00;100159.47;5052075;28;20197;-62
2023/01/23 00:06:55;;;;;;;0.40;0.40;;;;;;;9.46;100.00;100156.91;5052261;28;20201;-62
2023/01/23 00:09:22;;;;;;;0.33;0.33;;;;;;;9.52;100.00;100162.81;5051915;28;20254;-61
2023/01/23 00:11:48;;;;;;;0.50;0.50;;;;;;;9.45;100.00;100157.78;5052140;28;20216;-62
2023/01/23 00:14:16;;;;;;;0.40;0.40;;;;;;;9.56;100.00;100164.47;5051472;28;20197;-62
2023/01/23 00:16:43;;;;;;;0.40;0.40;;;;;;;9.53;100.00;100154.28;5051093;28;20216;-62
2023/01/23 00:19:10;;;;;;;0.60;0.60;;;;;;;9.54;100.00;100155.94;5051832;28;20713;-63
2023/01/23 00:21:38;;;;;;;0.70;0.70;;;;;;;9.57;100.00;100168.69;5051768;28;20209;-62
2023/01/23 00:24:07;;;;;;;0.50;0.50;;;;;;;9.54;100.00;100150.81;5051423;28;20235;-62
2023/01/23 00:26:34;;;;;;;0.30;0.30;;;;;;;9.53;100.00;100165.34;5051461;28;20208;-62
2023/01/23 00:29:02;;;;;;;0.53;0.53;;;;;;;9.57;100.00;100155.91;5050455;28;20197;-62
2023/01/23 00:31:31;;;;;;;0.50;0.50;;;;;;;9.55;100.00;100162.75;5051889;28;20221;-62
2023/01/23 00:34:00;;;;;;;0.60;0.60;;;;;;;9.50;100.00;100163.66;5051965;28;20673;-62
2023/01/23 00:36:29;;;;;;;0.50;0.50;;;;;;;9.55;100.00;100170.44;5051476;28;20197;-61
2023/01/23 00:38:56;;;;;;;0.70;0.70;;;;;;;9.54;100.00;100166.19;5050277;28;20285;-62
2023/01/23 00:41:25;;;;;;;0.90;0.90;;;;;;;9.61;100.00;100165.22;5051475;28;20258;-62
2023/01/23 00:43:52;;;;;;;1.40;1.03;;;;;;;9.53;100.00;100156.81;5051745;28;20672;-62
2023/01/23 00:46:19;;;;;;;1.03;0.90;;;;;;;9.50;100.00;100155.97;5051451;28;20676;-62
2023/01/23 00:48:46;;;;;;;0.50;0.50;;;;;;;9.54;100.00;100158.50;5050870;28;20203;-62
2023/01/23 00:51:13;;;;;;;0.50;0.50;;;;;;;9.56;100.00;100160.19;5051013;28;20214;-62
2023/01/23 00:53:42;;;;;;;0.60;0.60;;;;;;;9.59;100.00;100164.41;5050760;28;20197;-62
2023/01/23 00:56:09;;;;;;;0.43;0.43;;;;;;;9.62;100.00;100166.94;5050916;28;20205;-62
2023/01/23 00:58:39;;;;;;;0.60;0.60;;;;;;;9.59;100.00;100174.66;5050931;28;20271;-63
2023/01/23 01:01:06;;;;;;;0.43;0.43;;;;;;;9.60;100.00;100178.88;5050374;28;20228;-62
2023/01/23 01:03:33;;;;;;;0.40;0.40;;;;;;;9.58;100.00;100183.19;5050889;28;20200;-63
2023/01/23 01:06:00;;;;;;;0.47;0.47;;;;;;;9.56;100.00;100179.81;5048475;28;20626;-62
2023/01/23 01:08:27;;;;;;;0.40;0.40;;;;;;;9.53;100.00;100180.72;5050839;28;20565;-62
2023/01/23 01:10:54;;;;;;;0.70;0.70;;;;;;;9.54;100.00;100181.53;5050871;28;20208;-62
2023/01/23 01:13:22;;;;;;;0.50;0.50;;;;;;;9.53;100.00;100174.75;5050054;28;20212;-62
2023/01/23 01:15:52;;;;;;;0.40;0.40;;;;;;;9.47;100.00;100167.97;5051111;28;20204;-62
2023/01/23 01:18:21;;;;;;;1.03;1.03;;;;;;;9.54;100.00;100171.28;5051310;28;20239;-62
2023/01/23 01:20:48;;;;;;;0.47;0.47;;;;;;;9.52;100.00;100179.00;5050435;28;20247;-62
2023/01/23 01:23:16;;;;;;;0.77;0.77;;;;;;;9.50;100.00;100179.03;5050793;28;20207;-62
2023/01/23 01:25:42;;;;;;;0.90;0.90;;;;;;;9.49;100.00;100192.69;5048902;28;20209;-63
2023/01/23 01:28:09;;;;;;;0.60;0.60;;;;;;;9.49;100.00;100189.28;5049769;28;20287;-62
2023/01/23 01:30:36;;;;;;;0.50;0.50;;;;;;;9.50;100.00;100186.69;5050183;28;20251;-62
2023/01/23 01:33:04;;;;;;;0.50;0.50;;;;;;;9.49;100.00;100195.25;5047280;28;20240;-62
2023/01/23 01:35:31;;;;;;;0.50;0.50;;;;;;;9.48;100.00;100192.72;5047330;28;20278;-61
2023/01/23 01:37:59;;;;;;;0.50;0.50;;;;;;;9.47;100.00;100191.84;5049766;28;20656;-62
2023/01/23 01:40:28;;;;;;;0.60;0.60;;;;;;;9.46;100.00;100195.31;5050634;28;20257;-62
2023/01/23 01:42:57;;;;;;;0.40;0.40;;;;;;;9.51;100.00;100197.78;5047764;28;20683;-62
2023/01/23 01:46:04;;;;;;;0.70;0.70;;;;;;;9.56;100.00;100200.31;5050367;28;20196;-62
2023/01/23 01:48:36;;;;;;;0.33;0.33;;;;;;;9.54;100.00;100194.34;5048398;28;20208;-62
2023/01/23 01:51:08;;;;;;;0.50;0.50;;;;;;;9.50;100.00;100185.84;5050431;28;20691;-63
2023/01/23 01:53:37;;;;;;;0.70;0.70;;;;;;;9.52;100.00;100196.06;5050357;28;20197;-62
2023/01/23 01:56:05;;;;;;;0.40;0.40;;;;;;;9.53;100.00;100195.22;5050102;28;20200;-62
2023/01/23 01:58:33;;;;;;;0.57;0.57;;;;;;;9.50;100.00;100196.09;5049469;28;20208;-62
2023/01/23 02:01:00;;;;;;;1.03;1.03;;;;;;;9.52;100.00;100198.63;5046574;28;20200;-63
2023/01/23 02:03:26;;;;;;;0.47;0.47;;;;;;;9.52;100.00;100194.38;5050161;28;20197;-62
2023/01/23 02:05:55;;;;;;;0.50;0.50;;;;;;;9.52;100.00;100193.53;5050104;28;20196;-62
2023/01/23 02:08:27;;;;;;;0.50;0.50;;;;;;;9.48;100.00;100180.75;5050080;28;20248;-62
2023/01/23 02:10:54;;;;;;;0.93;0.93;;;;;;;9.48;100.00;100188.44;5049668;28;20286;-62
2023/01/23 02:13:24;;;;;;;0.50;0.50;;;;;;;9.55;100.00;100193.47;5050149;28;20204;-63
2023/01/23 02:15:52;;;;;;;0.50;0.50;;;;;;;9.55;100.00;100193.47;5050164;28;20600;-62
2023/01/23 02:18:20;;;;;;;0.80;0.80;;;;;;;9.57;100.00;100201.97;5049704;28;20196;-62
2023/01/23 02:20:48;;;;;;;0.70;0.70;;;;;;;9.42;100.00;100183.41;5050018;28;20192;-63
2023/01/23 02:23:27;;;;;;;0.50;0.50;;;;;;;9.52;100.00;100198.63;5049095;28;20197;-62
2023/01/23 02:25:59;;;;;;;0.53;0.53;;;;;;;9.45;100.00;100187.63;5049848;28;20197;-62
2023/01/23 02:28:37;;;;;;;1.03;1.03;;;;;;;9.43;100.00;100189.38;5049959;28;20291;-62
2023/01/23 02:31:04;;;;;;;0.77;0.77;;;;;;;9.46;100.00;100194.44;5049647;28;20213;-62
2023/01/23 02:33:50;;;;;;;1.00;1.00;;;;;;;9.48;100.00;100191.00;5050135;28;20200;-62
2023/01/23 02:36:19;;;;;;;0.97;0.97;;;;;;;9.40;100.00;100182.56;5049714;28;20200;-62
2023/01/23 02:38:53;;;;;;;0.40;0.40;;;;;;;9.50;100.00;100194.38;5050014;28;20679;-62
2023/01/23 02:41:27;;;;;;;0.60;0.60;;;;;;;9.48;100.00;100193.56;5050179;28;20291;-62
2023/01/23 02:43:55;;;;;;;0.60;0.60;;;;;;;9.50;100.00;100191.81;5049368;28;20204;-62
2023/01/23 02:46:24;;;;;;;0.50;0.50;;;;;;;9.51;100.00;100208.03;5049655;28;20213;-63
2023/01/23 02:48:51;;;;;;;1.70;1.00;;;;;;;9.43;100.00;100195.31;5049958;28;20216;-62
2023/01/23 02:51:19;;;;;;;0.50;0.50;;;;;;;9.46;100.00;100195.31;5049678;28;20216;-62
2023/01/23 02:53:46;;;;;;;0.40;0.40;;;;;;;9.46;100.00;100195.31;5052575;28;20199;-62
2023/01/23 02:56:14;;;;;;;0.60;0.60;;;;;;;9.46;100.00;100199.56;5053008;28;20206;-62
2023/01/23 03:01:27;;;;;;;0.50;0.50;;;;;;;9.41;100.00;100207.28;5051362;28;20223;-63
2023/01/23 03:03:55;;;;;;;1.10;1.00;;;;;;;9.37;100.00;100215.88;5053346;28;20208;-62
2023/01/23 03:06:23;;;;;;;0.60;0.60;;;;;;;9.26;100.00;100196.41;5053487;28;20752;-62
2023/01/23 03:08:49;;;;;;;0.60;0.60;;;;;;;9.36;100.00;100213.34;5053014;28;20197;-62
2023/01/23 03:11:18;;;;;;;0.50;0.50;;;;;;;9.27;100.00;100198.13;5050685;28;20222;-62
2023/01/23 03:13:47;;;;;;;0.50;0.50;;;;;;;9.39;100.00;100220.97;5053163;28;20585;-62
2023/01/23 03:16:15;;;;;;;0.80;0.80;;;;;;;9.24;100.00;100193.84;5053056;28;20232;-62
2023/01/23 03:18:42;;;;;;;0.50;0.50;;;;;;;9.32;100.00;100207.41;5053080;28;20208;-62
2023/01/23 03:21:08;;;;;;;0.40;0.40;;;;;;;9.39;100.00;100203.94;5052982;28;20219;-62
2023/01/23 03:23:39;;;;;;;0.83;0.83;;;;;;;9.33;100.00;100193.78;5048222;28;20682;-62
2023/01/23 03:26:06;;;;;;;0.40;0.40;;;;;;;9.35;100.00;100212.50;5052450;28;20568;-62
2023/01/23 03:31:18;;;;;;;0.40;0.40;;;;;;;9.29;100.00;100207.47;5052849;28;20216;-62
2023/01/23 03:33:45;;;;;;;0.50;0.50;;;;;;;9.25;100.00;100215.16;5052888;28;20205;-62
2023/01/23 03:36:13;;;;;;;0.40;0.40;;;;;;;9.30;100.00;100224.50;5052545;28;20205;-61
2023/01/23 03:41:23;;;;;;;0.50;0.50;;;;;;;9.34;100.00;100220.19;5052461;28;20204;-62
2023/01/23 03:41:27;;;;;;;1.33;1.33;;;;;;;9.28;100.00;100218.53;5052149;28;20668;-62
2023/01/23 03:43:53;;;;;;;0.60;0.60;;;;;;;9.30;100.00;100221.94;5050363;28;20200;-62
2023/01/23 03:46:22;;;;;;;0.60;0.60;;;;;;;9.27;100.00;100219.41;5052775;28;20209;-61
2023/01/23 03:48:48;;;;;;;0.73;0.73;;;;;;;9.30;100.00;100232.19;5052459;28;20200;-62
2023/01/23 03:51:15;;;;;;;0.53;0.53;;;;;;;9.24;100.00;100218.63;5052414;28;20258;-63
2023/01/23 03:53:42;;;;;;;0.40;0.40;;;;;;;9.31;100.00;100231.31;5051929;28;20196;-63
2023/01/23 03:56:09;;;;;;;0.40;0.40;;;;;;;9.34;100.00;100241.50;5052276;28;20200;-62
2023/01/23 03:58:35;;;;;;;0.43;0.43;;;;;;;9.35;100.00;100240.66;5052527;28;20193;-62
2023/01/23 04:01:06;;;;;;;3.97;0.90;;;;;;;9.21;100.00;100227.16;5052051;28;20193;-62
2023/01/23 04:03:35;;;;;;;0.40;0.40;;;;;;;9.10;100.00;100205.97;5052277;28;20207;-62
2023/01/23 04:06:02;;;;;;;0.57;0.57;;;;;;;9.32;100.00;100242.38;5051543;28;20200;-62
2023/01/23 04:08:29;;;;;;;0.40;0.40;;;;;;;9.31;100.00;100241.53;5052150;28;20216;-63
2023/01/23 04:11:06;;;;;;;0.93;0.93;;;;;;;9.25;100.00;100240.75;5049796;28;20205;-62
2023/01/23 04:13:33;;;;;;;0.97;0.97;;;;;;;9.27;100.00;100256.97;5051970;28;20610;-63
2023/01/23 04:16:01;;;;;;;1.40;1.40;;;;;;;9.19;100.00;100257.03;5052269;28;20284;-63
2023/01/23 04:18:28;;;;;;;0.43;0.43;;;;;;;9.18;100.00;100255.31;5049018;28;20197;-62
2023/01/23 04:20:56;;;;;;;1.07;1.07;;;;;;;9.13;100.00;100254.53;5051942;28;20204;-62
2023/01/23 04:23:24;;;;;;;0.70;0.70;;;;;;;9.14;100.00;100263.94;5051369;28;20201;-62
2023/01/23 04:25:53;;;;;;;0.50;0.50;;;;;;;9.12;100.00;100265.63;5051049;28;20303;-62
2023/01/23 04:28:20;;;;;;;0.60;0.60;;;;;;;9.13;100.00;100272.44;5050550;28;20201;-62
2023/01/23 04:30:47;;;;;;;0.50;0.50;;;;;;;9.07;100.00;100261.44;5050370;28;20200;-62
2023/01/23 04:33:14;;;;;;;0.50;0.50;;;;;;;9.02;100.00;100260.63;5049512;28;20212;-62
2023/01/23 04:35:40;;;;;;;0.83;0.83;;;;;;;9.03;100.00;100270.84;5051871;28;20205;-62
2023/01/23 04:38:08;;;;;;;0.83;0.83;;;;;;;8.99;100.00;100274.28;5051342;28;20239;-62
2023/01/23 04:40:35;;;;;;;0.40;0.40;;;;;;;9.05;100.00;100279.34;5050447;28;20266;-61
2023/01/23 04:43:02;;;;;;;0.67;0.67;;;;;;;9.04;100.00;100287.03;5051246;28;20199;-62
2023/01/23 04:45:29;;;;;;;0.50;0.50;;;;;;;9.04;100.00;100282.78;5051496;28;20292;-63
2023/01/23 04:47:56;;;;;;;0.97;0.97;;;;;;;9.04;100.00;100285.34;5050633;28;20201;-62
2023/01/23 04:50:23;;;;;;;0.60;0.60;;;;;;;9.06;100.00;100286.16;5051080;28;20197;-62
2023/01/23 04:52:50;;;;;;;0.43;0.43;;;;;;;9.03;100.00;100295.56;5049654;28;20205;-62
2023/01/23 04:55:18;;;;;;;0.60;0.60;;;;;;;8.92;100.00;100308.44;5050145;28;20565;-62
2023/01/23 04:57:45;;;;;;;0.50;0.50;;;;;;;8.87;100.00;100299.97;5051279;28;20196;-62
2023/01/23 05:00:13;;;;;;;0.60;0.60;;;;;;;8.86;100.00;100298.28;5048840;28;20546;-61
2023/01/23 05:02:40;;;;;;;0.70;0.70;;;;;;;8.88;100.00;100305.09;5050783;28;20227;-62
2023/01/23 05:05:07;;;;;;;0.60;0.60;;;;;;;8.78;100.00;100303.47;5051051;28;20200;-61
2023/01/23 05:07:34;;;;;;;0.50;0.50;;;;;;;8.80;100.00;100303.44;5050915;28;20620;-62
2023/01/23 05:10:01;;;;;;;0.77;0.77;;;;;;;8.80;100.00;100303.44;5050845;28;20200;-61
2023/01/23 05:12:29;;;;;;;0.40;0.40;;;;;;;8.80;100.00;100308.56;5050825;28;20220;-61
2023/01/23 05:14:56;;;;;;;0.50;0.50;;;;;;;8.80;100.00;100318.78;5047247;28;20197;-62
2023/01/23 05:17:23;;;;;;;0.50;0.50;;;;;;;8.73;100.00;100309.47;5051063;28;20668;-62
2023/01/23 05:19:49;;;;;;;0.80;0.80;;;;;;;8.76;100.00;100327.34;5045773;28;20584;-61
2023/01/23 05:22:16;;;;;;;0.60;0.60;;;;;;;8.75;100.00;100320.56;5050978;28;20200;-62
2023/01/23 05:24:43;;;;;;;0.50;0.50;;;;;;;8.73;100.00;100324.81;5050695;28;20283;-62
2023/01/23 05:27:10;;;;;;;0.43;0.43;;;;;;;8.70;100.00;100337.59;5050325;28;20196;-62
2023/01/23 05:29:38;;;;;;;1.93;1.93;;;;;;;8.66;100.00;100328.28;5050408;28;20196;-62
2023/01/23 05:32:06;;;;;;;0.50;0.50;;;;;;;8.71;100.00;100334.19;5050562;28;20216;-62
2023/01/23 05:34:33;;;;;;;0.60;0.60;;;;;;;8.69;100.00;100335.94;5050684;28;20200;-61
2023/01/23 05:36:59;;;;;;;0.60;0.60;;;;;;;8.70;100.00;100332.50;5050340;28;20204;-61
2023/01/23 05:39:26;;;;;;;0.70;0.70;;;;;;;8.63;100.00;100339.38;5050487;28;20640;-62
2023/01/23 05:41:54;;;;;;;0.50;0.50;;;;;;;8.58;100.00;100322.38;5048678;28;20207;-62
2023/01/23 05:44:20;;;;;;;0.50;0.50;;;;;;;8.66;100.00;100341.06;5049539;28;20209;-61
2023/01/23 05:46:48;;;;;;;0.50;0.50;;;;;;;8.69;100.00;100341.06;5042783;28;20710;-61
2023/01/23 05:49:15;;;;;;;0.73;0.73;;;;;;;8.65;100.00;100344.47;5049931;28;20207;-61
2023/01/23 05:51:42;;;;;;;0.40;0.40;;;;;;;8.63;100.00;100351.28;5049884;28;20204;-62
2023/01/23 05:54:10;;;;;;;0.87;0.87;;;;;;;8.69;100.00;100357.22;5044216;28;20205;-61
2023/01/23 05:56:37;;;;;;;0.47;0.47;;;;;;;8.40;100.00;100311.41;5049707;28;20212;-62
2023/01/23 05:59:04;;;;;;;0.70;0.70;;;;;;;8.74;100.00;100364.84;5047701;28;20664;-62
2023/01/23 06:01:31;;;;;;;0.70;0.70;;;;;;;8.72;100.00;100361.47;5049394;28;20224;-62
2023/01/23 06:03:59;;;;;;;0.60;0.60;;;;;;;8.71;100.00;100363.19;5050013;28;20197;-62
2023/01/23 06:06:26;;;;;;;0.60;0.60;;;;;;;8.71;100.00;100362.31;5050297;28;20211;-62
2023/01/23 06:08:52;;;;;;;1.00;1.00;;;;;;;8.72;100.00;100367.44;5050411;28;20207;-61
2023/01/23 06:11:19;;;;;;;0.50;0.50;;;;;;;8.76;100.00;100366.53;5047763;28;20211;-62
2023/01/23 06:13:46;;;;;;;0.57;0.57;;;;;;;8.72;100.00;100374.25;5050318;28;20225;-62
2023/01/23 06:16:13;;;;;;;0.50;0.50;;;;;;;8.63;100.00;100375.16;5047198;28;20565;-61
2023/01/23 06:18:40;;;;;;;0.83;0.83;;;;;;;8.68;100.00;100386.22;5049865;28;20197;-61
2023/01/23 06:21:08;;;;;;;1.23;1.23;;;;;;;8.64;100.00;100383.66;5050005;28;20569;-62
2023/01/23 06:23:35;;;;;;;0.80;0.80;;;;;;;8.65;100.00;100382.81;5049987;28;20196;-61
2023/01/23 06:26:02;;;;;;;0.40;0.40;;;;;;;8.65;100.00;100391.34;5049234;28;20212;-62
2023/01/23 06:28:29;;;;;;;0.80;0.80;;;;;;;8.63;100.00;100407.53;5050878;28;20634;-61
2023/01/23 06:31:01;;;;;;;0.50;0.50;;;;;;;8.58;100.00;100393.94;5052885;28;20200;-62
2023/01/23 06:33:27;;;;;;;0.50;0.50;;;;;;;8.63;100.00;100397.31;5053943;28;20220;-62
2023/01/23 06:35:58;;;;;;;0.40;0.40;;;;;;;8.53;100.00;100382.91;5053504;28;20769;-62
2023/01/23 06:38:26;;;;;;;0.40;0.40;;;;;;;8.62;100.00;100398.19;5052396;28;20745;-61
2023/01/23 06:40:53;;;;;;;0.50;0.50;;;;;;;8.58;100.00;100409.28;5051878;28;20208;-62
2023/01/23 06:43:20;;;;;;;2.17;2.00;;;;;;;8.57;100.00;100417.78;5052051;28;20201;-61
2023/01/23 06:45:48;;;;;;;0.80;0.80;;;;;;;8.58;100.00;100419.50;5053177;28;20235;-61
2023/01/23 06:48:15;;;;;;;0.60;0.60;;;;;;;8.62;100.00;100431.41;5048463;28;20209;-62
2023/01/23 06:50:43;;;;;;;0.93;0.93;;;;;;;8.56;100.00;100431.44;5049701;28;20200;-62
2023/01/23 06:53:13;;;;;;;0.50;0.50;;;;;;;8.48;100.00;100420.41;5052598;28;20219;-61
2023/01/23 06:55:41;;;;;;;0.40;0.40;;;;;;;8.55;100.00;100416.97;5052998;28;20298;-61
2023/01/23 06:58:08;;;;;;;0.73;0.73;;;;;;;8.59;100.00;100437.41;5052340;28;20345;-61
2023/01/23 07:00:35;;;;;;;0.80;0.80;;;;;;;8.57;100.00;100438.22;5051169;28;20201;-61
2023/01/23 07:03:02;;;;;;;0.60;0.60;;;;;;;8.61;100.00;100438.22;5052268;28;20259;-61
2023/01/23 07:05:29;;;;;;;0.40;0.40;;;;;;;8.64;100.00;100434.78;5052754;28;20319;-61
2023/01/23 07:07:56;;;;;;;0.40;0.40;;;;;;;8.60;100.00;100425.44;5050617;28;20259;-62
2023/01/23 07:10:25;;;;;;;0.60;0.60;;;;;;;8.59;100.00;100422.06;5053120;28;20274;-62
2023/01/23 07:12:53;;;;;;;1.37;1.37;;;;;;;8.64;100.00;100433.09;5049416;28;20221;-61
2023/01/23 07:15:20;;;;;;;0.70;0.70;;;;;;;8.66;100.00;100433.09;5051663;28;20201;-61
2023/01/23 07:17:47;;;;;;;0.50;0.50;;;;;;;8.60;100.00;100433.97;5049792;28;20274;-62
2023/01/23 07:20:14;;;;;;;0.63;0.63;;;;;;;8.64;100.00;100434.78;5052848;28;20200;-62
2023/01/23 07:22:41;;;;;;;0.50;0.50;;;;;;;8.66;100.00;100425.44;5050969;28;20196;-62
2023/01/23 07:25:09;;;;;;;0.87;0.87;;;;;;;8.69;100.00;100433.91;5051543;28;20256;-62
2023/01/23 07:27:35;;;;;;;0.40;0.40;;;;;;;8.72;100.00;100422.81;5052857;28;20204;-62
2023/01/23 07:30:05;;;;;;;0.50;0.50;;;;;;;8.71;100.00;100426.22;5053102;28;20201;-62
2023/01/23 07:32:31;;;;;;;1.10;1.10;;;;;;;8.73;100.00;100430.47;5053182;28;20303;-62
2023/01/23 07:34:58;;;;;;;0.50;0.50;;;;;;;8.75;100.00;100423.66;5052545;28;20201;-63
2023/01/23 07:37:25;;;;;;;0.60;0.60;;;;;;;8.81;100.00;100420.22;5052430;28;20207;-62
2023/01/23 07:39:52;;;;;;;0.60;0.60;;;;;;;8.83;100.00;100431.25;5050573;28;20197;-61
2023/01/23 07:42:19;;;;;;;0.50;0.50;;;;;;;8.86;100.00;100421.00;5053306;28;20664;-61
2023/01/23 07:44:45;;;;;;;0.70;0.70;;;;;;;8.84;100.00;100427.84;5050233;28;20200;-62
2023/01/23 07:47:14;;;;;;;1.17;1.17;;;;;;;8.84;100.00;100418.47;5049070;28;20204;-63
2023/01/23 07:49:40;;;;;;;0.67;0.67;;;;;;;8.83;100.00;100421.03;5049922;28;20200;-62
2023/01/23 07:52:07;;;;;;;1.33;1.33;;;;;;;8.83;100.00;100411.66;5043436;28;20220;-61
2023/01/23 07:54:34;;;;;;;0.50;0.50;;;;;;;8.81;100.00;100418.50;5051283;28;20212;-61
2023/01/23 07:57:01;;;;;;;0.97;0.97;;;;;;;8.88;100.00;100415.06;5050700;28;20201;-60
2023/01/23 07:59:27;;;;;;;0.60;0.60;;;;;;;8.94;100.00;100419.25;5052180;28;20250;-61
2023/01/23 08:01:54;;;;;;;1.10;1.03;;;;;;;8.88;100.00;100419.31;5051983;28;20235;-61
2023/01/23 08:04:22;;;;;;;0.40;0.40;;;;;;;8.84;100.00;100412.50;5050521;28;20192;-61
2023/01/23 08:06:49;;;;;;;0.50;0.50;;;;;;;8.72;100.00;100397.25;5051488;28;20224;-61
2023/01/23 08:09:16;;;;;;;0.40;0.40;;;;;;;8.88;100.00;100409.94;5049945;28;20307;-61
2023/01/23 08:11:43;;;;;;;0.50;0.50;;;;;;;8.88;100.00;100419.31;5052125;28;20193;-61
2023/01/23 08:14:11;;;;;;;0.90;0.90;;;;;;;8.89;100.00;100415.88;5050840;28;20208;-61
2023/01/23 08:16:37;;;;;;;0.40;0.40;;;;;;;8.94;100.00;100429.50;5051708;28;20215;-61
2023/01/23 08:19:06;;;;;;;0.50;0.50;;;;;;;8.95;100.00;100426.06;5050608;28;20204;-61
2023/01/23 08:21:35;;;;;;;0.43;0.43;;;;;;;8.98;100.00;100447.34;5051301;28;20877;-61
2023/01/23 08:24:01;;;;;;;0.50;0.50;;;;;;;9.00;100.00;100449.91;5051857;28;20196;-61
2023/01/23 08:26:28;;;;;;;0.43;0.43;;;;;;;9.00;100.00;100447.34;5050048;28;20196;-61
2023/01/23 08:28:55;;;;;;;0.93;0.93;;;;;;;8.98;100.00;100441.41;5051861;28;20582;-61
2023/01/23 08:31:22;;;;;;;3.10;0.87;;;;;;;9.00;100.00;100455.03;5051948;28;20205;-61
2023/01/23 08:33:49;;;;;;;0.97;0.97;;;;;;;9.03;100.00;100465.22;5051723;28;20209;-61
2023/01/23 08:36:15;;;;;;;0.70;0.70;;;;;;;9.04;100.00;100466.09;5051877;28;20200;-60
2023/01/23 08:38:44;;;;;;;0.70;0.70;;;;;;;9.05;100.00;100460.94;5052069;28;20600;-61
2023/01/23 08:41:11;;;;;;;0.97;0.97;;;;;;;8.92;100.00;100449.94;5051730;28;20573;-61
2023/01/23 08:43:40;;;;;;;1.13;1.13;;;;;;;8.99;100.00;100468.66;5051564;28;20627;-62
2023/01/23 08:46:07;;;;;;;1.00;1.00;;;;;;;8.89;100.00;100461.91;5050009;28;20599;-60
2023/01/23 08:48:34;;;;;;;0.50;0.50;;;;;;;8.94;100.00;100455.91;5049655;28;20205;-61
2023/01/23 08:51:03;;;;;;;0.47;0.47;;;;;;;8.92;100.00;100452.50;5050652;28;21179;-60
2023/01/23 08:53:31;;;;;;;1.03;1.03;;;;;;;8.89;100.00;100446.56;5051427;28;20216;-60
2023/01/23 08:56:04;;;;;;;0.50;0.50;;;;;;;8.88;100.00;100455.09;5051509;28;20669;-60
2023/01/23 08:58:31;;;;;;;0.67;0.67;;;;;;;8.88;100.00;100450.84;5049111;28;20630;-61
2023/01/23 09:00:58;;;;;;;0.83;0.83;;;;;;;8.94;100.00;100467.84;5045888;28;20196;-61
2023/01/23 09:03:25;;;;;;;0.57;0.57;;;;;;;8.94;100.00;100453.38;5041983;28;20364;-61
2023/01/23 09:05:52;;;;;;;0.40;0.40;;;;;;;8.97;100.00;100465.28;5049265;28;20611;-61
2023/01/23 09:08:19;;;;;;;0.70;0.70;;;;;;;8.90;100.00;100468.72;5047613;28;20223;-61
2023/01/23 09:10:45;;;;;;;0.70;0.70;;;;;;;8.96;100.00;100473.78;5051372;28;20250;-61
2023/01/23 09:13:14;;;;;;;0.50;0.50;;;;;;;8.98;100.00;100466.13;5049257;28;20212;-62
2023/01/23 09:15:41;;;;;;;0.50;0.50;;;;;;;8.99;100.00;100463.53;5044270;28;20667;-62
2023/01/23 09:18:08;;;;;;;0.77;0.77;;;;;;;9.03;100.00;100464.38;5050649;28;20200;-61
2023/01/23 09:20:34;;;;;;;0.60;0.60;;;;;;;8.98;100.00;100457.56;5051084;28;20200;-60
2023/01/23 09:23:01;;;;;;;0.60;0.60;;;;;;;9.06;100.00;100454.13;5050840;28;20219;-60
2023/01/23 09:25:30;;;;;;;0.40;0.40;;;;;;;9.07;100.00;100446.44;5050478;28;20300;-61
2023/01/23 09:27:56;;;;;;;0.60;0.60;;;;;;;9.01;100.00;100451.63;5050897;28;20200;-63
2023/01/23 09:30:25;;;;;;;0.50;0.50;;;;;;;9.04;100.00;100459.25;5050824;28;20196;-62
2023/01/23 09:32:52;;;;;;;0.70;0.70;;;;;;;9.04;100.00;100456.69;5050931;28;20209;-62
2023/01/23 09:35:19;;;;;;;0.90;0.90;;;;;;;9.05;100.00;100457.56;5050386;28;20197;-62
2023/01/23 09:38:02;;;;;;;0.67;0.67;;;;;;;9.02;100.00;100463.50;5050783;28;20205;-62
2023/01/23 09:40:32;;;;;;;1.40;1.17;;;;;;;9.03;100.00;100461.81;5050620;28;20196;-62
2023/01/23 09:43:03;;;;;;;0.50;0.50;;;;;;;9.05;100.00;100463.50;5050750;28;20568;-62
2023/01/23 09:45:33;;;;;;;0.67;0.67;;;;;;;9.05;100.00;100463.50;5044111;28;20212;-63
2023/01/23 09:48:11;;;;;;;0.60;0.60;;;;;;;9.02;100.00;100455.84;5047837;28;20665;-62
2023/01/23 09:50:44;;;;;;;0.60;0.60;;;;;;;9.07;100.00;100459.22;5049188;28;20660;-62
2023/01/23 09:53:16;;;;;;;0.50;0.50;;;;;;;9.08;100.00;100453.25;5050624;28;20224;-62
2023/01/23 09:55:48;;;;;;;0.50;0.50;;;;;;;9.10;100.00;100441.31;5049977;28;20201;-62
2023/01/23 09:58:19;;;;;;;0.43;0.43;;;;;;;9.05;100.00;100447.31;5050460;28;20265;-63
2023/01/23 10:00:47;;;;;;;0.60;0.60;;;;;;;9.08;100.00;100450.69;5050260;28;20209;-62
2023/01/23 10:03:16;;;;;;;0.47;0.47;;;;;;;9.08;100.00;100437.91;5045823;28;20205;-62
2023/01/23 10:05:53;;;;;;;0.40;0.40;;;;;;;9.13;100.00;100441.28;5044818;28;20201;-63
2023/01/23 10:08:30;;;;;;;0.67;0.67;;;;;;;9.23;100.00;100442.06;5046152;28;20212;-62
2023/01/23 10:10:59;;;;;;;0.60;0.60;;;;;;;9.18;100.00;100431.84;5045211;28;20200;-63
2023/01/23 10:13:56;;;;;;;0.60;0.60;;;;;;;9.24;100.00;100436.91;5047674;28;20228;-62
2023/01/23 10:16:52;;;;;;;1.87;1.73;;;;;;;9.16;100.00;100436.13;5044057;28;20600;-62
2023/01/23 10:19:41;;;;;;;0.40;0.40;;;;;;;9.16;100.00;100450.63;5046687;28;20212;-62
2023/01/23 10:22:18;;;;;;;0.40;0.40;;;;;;;9.14;100.00;100449.81;5047800;28;20561;-62
2023/01/23 10:24:50;;;;;;;0.60;0.60;;;;;;;9.21;100.00;100443.78;5047233;28;20196;-62
2023/01/23 10:27:19;;;;;;;0.43;0.43;;;;;;;9.24;100.00;100449.69;5048148;28;20197;-62
2023/01/23 10:29:50;;;;;;;0.90;0.90;;;;;;;9.29;100.00;100445.41;5045189;28;20260;-63
2023/01/23 10:32:24;;;;;;;0.70;0.70;;;;;;;9.13;100.00;100418.25;5048184;28;20300;-62
2023/01/23 10:34:56;;;;;;;0.40;0.40;;;;;;;9.31;100.00;100436.00;5048467;28;20307;-62
2023/01/23 10:37:37;;;;;;;0.40;0.40;;;;;;;9.38;100.00;100436.81;5045130;28;20201;-63
2023/01/23 10:40:07;;;;;;;0.50;0.50;;;;;;;9.37;100.00;100430.00;5042501;28;20200;-62
2023/01/23 10:42:35;;;;;;;1.07;1.07;;;;;;;9.36;100.00;100429.16;5046810;28;20200;-62
2023/01/23 10:45:02;;;;;;;0.50;0.50;;;;;;;9.32;100.00;100432.59;5046914;28;20612;-62
2023/01/23 10:47:34;;;;;;;2.33;1.23;;;;;;;9.28;100.00;100435.19;5047071;28;20216;-62
2023/01/23 10:50:01;;;;;;;6.30;2.40;;;;;;;9.21;100.00;100429.25;5042834;28;20263;-62
2023/01/23 10:52:41;;;;;;;1.10;1.10;;;;;;;9.07;100.00;100400.41;5044306;28;20201;-62
2023/01/23 10:55:27;;;;;;;0.90;0.90;;;;;;;9.16;100.00;100418.22;5047982;28;20204;-62
2023/01/23 10:57:57;;;;;;;0.90;0.90;;;;;;;9.24;100.00;100423.28;5043471;28;20196;-62
2023/01/23 11:00:27;;;;;;;0.60;0.60;;;;;;;9.23;100.00;100424.16;5042808;28;20207;-62
2023/01/23 11:02:56;;;;;;;0.60;0.60;;;;;;;9.17;100.00;100422.50;5042010;28;20232;-62
2023/01/23 11:05:38;;;;;;;0.87;0.83;;;;;;;9.05;100.00;100407.22;5038678;28;20289;-62
2023/01/23 11:08:23;;;;;;;0.60;0.60;;;;;;;9.17;100.00;100419.09;5036803;28;20203;-62
2023/01/23 11:10:50;;;;;;;0.80;0.80;;;;;;;9.13;100.00;100435.31;5032547;28;20210;-62
2023/01/23 11:13:26;;;;;;;0.77;0.77;;;;;;;9.02;100.00;100421.75;5035765;28;20216;-62
2023/01/23 11:15:53;;;;;;;0.57;0.57;;;;;;;8.96;100.00;100422.66;5045157;28;20262;-62
2023/01/23 11:18:32;;;;;;;0.80;0.80;;;;;;;8.95;100.00;100415.81;5044226;28;20679;-62
2023/01/23 11:20:59;;;;;;;0.60;0.60;;;;;;;8.99;100.00;100417.50;5045527;28;20323;-62
2023/01/23 11:23:27;;;;;;;2.47;1.10;;;;;;;8.89;100.00;100420.97;5046153;28;20209;-62
2023/01/23 11:25:55;;;;;;;0.60;0.60;;;;;;;8.85;100.00;100415.03;5042053;28;20220;-62
2023/01/23 11:28:26;;;;;;;0.50;0.50;;;;;;;8.85;100.00;100420.16;5042301;28;20201;-62
2023/01/23 11:30:57;;;;;;;1.00;1.00;;;;;;;8.85;100.00;100409.09;5045333;28;20286;-61
2023/01/23 11:33:39;;;;;;;2.37;1.50;;;;;;;8.96;100.00;100418.38;5050398;28;20714;-62
2023/01/23 11:36:20;;;;;;;1.27;1.27;;;;;;;8.96;100.00;100417.53;5051502;28;20200;-61
2023/01/23 11:38:52;;;;;;;0.90;0.90;;;;;;;8.93;100.00;100420.09;5051528;28;20258;-61